createdAt,value
2024-03-16T00:00:29.074Z,10.4
2024-03-16T00:03:29.069Z,10.5
2024-03-16T00:06:29.095Z,10.6
2024-03-16T00:09:29.125Z,10.6
2024-03-16T00:12:29.101Z,10.6
2024-03-16T00:15:29.121Z,10.5
2024-03-16T00:18:29.174Z,10.5
2024-03-16T00:21:29.163Z,10.6
2024-03-16T00:24:29.155Z,10.7
2024-03-16T00:27:29.145Z,10.7
2024-03-16T00:30:29.144Z,10.7
2024-03-16T00:33:29.160Z,10.8
2024-03-16T00:36:29.159Z,10.8
2024-03-16T00:39:29.183Z,10.8
2024-03-16T00:42:29.181Z,10.8
2024-03-16T00:45:29.176Z,10.9
2024-03-16T00:48:29.205Z,10.9
2024-03-16T00:51:29.215Z,10.9
2024-03-16T00:54:29.258Z,10.9
2024-03-16T00:57:29.210Z,10.9
2024-03-16T01:00:29.216Z,10.9
2024-03-16T01:03:29.253Z,10.8
2024-03-16T01:06:29.233Z,10.8
2024-03-16T01:09:29.270Z,10.8
2024-03-16T01:12:29.269Z,10.9
2024-03-16T01:15:29.275Z,10.8
2024-03-16T01:18:29.284Z,10.7
2024-03-16T01:21:29.294Z,10.6
2024-03-16T01:24:29.309Z,10.5
2024-03-16T01:27:29.306Z,10.5
2024-03-16T01:30:29.321Z,10.5
2024-03-16T01:33:29.319Z,10.5
2024-03-16T01:36:29.386Z,10.5
2024-03-16T01:39:29.336Z,10.6
2024-03-16T01:42:29.360Z,10.6
2024-03-16T01:45:29.368Z,10.7
2024-03-16T01:48:29.363Z,10.7
2024-03-16T01:51:29.385Z,10.7
2024-03-16T01:54:29.417Z,10.7
2024-03-16T01:57:29.424Z,10.7
2024-03-16T02:00:29.393Z,10.7
2024-03-16T02:03:29.454Z,10.6
2024-03-16T02:06:29.426Z,10.6
2024-03-16T02:09:29.433Z,10.7
2024-03-16T02:12:29.454Z,10.7
2024-03-16T02:15:29.449Z,10.7
2024-03-16T02:18:29.468Z,10.7
2024-03-16T02:21:29.468Z,10.7
2024-03-16T02:24:29.478Z,10.7
2024-03-16T02:27:29.472Z,10.6
2024-03-16T02:30:29.496Z,10.6
2024-03-16T02:33:29.531Z,10.5
2024-03-16T02:36:29.501Z,10.4
2024-03-16T02:39:29.511Z,10.4
2024-03-16T02:42:29.500Z,10.4
2024-03-16T02:45:29.520Z,10.5
2024-03-16T02:48:29.509Z,10.5
2024-03-16T02:51:29.549Z,10.6
2024-03-16T02:54:29.512Z,10.6
2024-03-16T02:57:29.525Z,10.6
2024-03-16T03:00:29.525Z,10.5
2024-03-16T03:03:29.532Z,10.4
2024-03-16T03:06:29.536Z,10.3
2024-03-16T03:09:29.541Z,10.2
2024-03-16T03:12:29.553Z,10.2
2024-03-16T03:15:29.532Z,10.3
2024-03-16T03:18:29.528Z,10.3
2024-03-16T03:21:29.526Z,10.3
2024-03-16T03:24:29.585Z,10.2
2024-03-16T03:27:29.538Z,10.1
2024-03-16T03:30:29.539Z,10.1
2024-03-16T03:33:29.557Z,10.1
2024-03-16T03:36:29.546Z,10.1
2024-03-16T03:39:29.598Z,10.1
2024-03-16T03:42:29.545Z,10.2
2024-03-16T03:45:29.561Z,10.2
2024-03-16T03:48:29.559Z,10.1
2024-03-16T03:51:29.553Z,10.1
2024-03-16T03:54:29.563Z,10.1
2024-03-16T03:57:29.549Z,10
2024-03-16T04:00:29.555Z,10
2024-03-16T04:03:29.581Z,10
2024-03-16T04:06:29.561Z,9.9
2024-03-16T04:09:29.550Z,9.9
2024-03-16T04:12:29.577Z,9.9
2024-03-16T04:15:29.612Z,10
2024-03-16T04:18:29.580Z,10
2024-03-16T04:21:29.595Z,9.9
2024-03-16T04:24:29.581Z,9.8
2024-03-16T04:27:29.603Z,9.7
2024-03-16T04:30:29.619Z,9.7
2024-03-16T04:33:29.597Z,9.7
2024-03-16T04:36:29.584Z,9.7
2024-03-16T04:39:29.606Z,9.8
2024-03-16T04:42:29.593Z,9.9
2024-03-16T04:45:29.700Z,10
2024-03-16T04:48:29.622Z,10
2024-03-16T04:51:29.625Z,10.1
2024-03-16T04:54:29.631Z,10.1
2024-03-16T04:57:29.687Z,10.1
2024-03-16T05:00:29.597Z,10.2
2024-03-16T05:03:29.591Z,10.2
2024-03-16T05:06:29.598Z,10.2
2024-03-16T05:09:29.704Z,10.2
2024-03-16T05:12:29.603Z,10.1
2024-03-16T05:15:29.631Z,10.1
2024-03-16T05:18:29.584Z,10.2
2024-03-16T05:21:29.593Z,10.2
2024-03-16T05:24:29.603Z,10.2
2024-03-16T05:27:29.618Z,10.3
2024-03-16T05:30:29.605Z,10.3
2024-03-16T05:33:29.644Z,10.3
2024-03-16T05:36:29.635Z,10.3
2024-03-16T05:39:29.602Z,10.4
2024-03-16T05:42:29.648Z,10.4
2024-03-16T05:45:29.610Z,10.4
2024-03-16T05:48:29.674Z,10.4
2024-03-16T05:51:29.625Z,10.5
2024-03-16T05:54:29.624Z,10.5
2024-03-16T05:57:29.623Z,10.4
2024-03-16T06:00:29.665Z,10.4
2024-03-16T06:03:29.642Z,10.4
2024-03-16T06:06:29.780Z,10.4
2024-03-16T06:09:29.711Z,10.5
2024-03-16T06:12:29.673Z,10.5
2024-03-16T06:15:29.687Z,10.6
2024-03-16T06:18:29.670Z,10.9
2024-03-16T06:21:29.661Z,11.1
2024-03-16T06:24:29.672Z,11.2
2024-03-16T06:27:29.640Z,11.2
2024-03-16T06:30:29.806Z,11.2
2024-03-16T06:33:29.679Z,11.1
2024-03-16T06:36:29.641Z,11.1
2024-03-16T06:39:29.661Z,11.1
2024-03-16T06:42:29.643Z,11.1
2024-03-16T06:45:29.691Z,11.2
2024-03-16T06:48:29.673Z,11.1
2024-03-16T06:51:29.654Z,11.2
2024-03-16T06:54:29.681Z,11.2
2024-03-16T06:57:29.671Z,11.2
2024-03-16T07:00:29.771Z,11.2
2024-03-16T07:03:29.679Z,11.2
2024-03-16T07:06:29.729Z,11.1
2024-03-16T07:09:29.696Z,10.9
2024-03-16T07:12:29.711Z,10.8
2024-03-16T07:15:29.708Z,10.8
2024-03-16T07:18:29.695Z,10.9
2024-03-16T07:21:29.856Z,11
2024-03-16T07:24:29.685Z,11
2024-03-16T07:27:29.706Z,11
2024-03-16T07:30:29.717Z,11
2024-03-16T07:33:29.729Z,11
2024-03-16T07:36:29.728Z,11
2024-03-16T07:39:29.701Z,11
2024-03-16T07:42:29.724Z,11
2024-03-16T07:45:29.828Z,11.1
2024-03-16T07:48:29.710Z,11.2
2024-03-16T07:51:29.708Z,11.4
2024-03-16T07:54:29.741Z,11.4
2024-03-16T07:57:29.743Z,11.5
2024-03-16T08:00:29.729Z,11.5
2024-03-16T08:03:29.748Z,11.4
2024-03-16T08:06:29.722Z,11.2
2024-03-16T08:09:29.762Z,11.1
2024-03-16T08:12:31.759Z,10.9
2024-03-16T08:15:29.725Z,10.8
2024-03-16T08:18:29.790Z,10.6
2024-03-16T08:21:29.742Z,10.6
2024-03-16T08:24:29.760Z,10.6
2024-03-16T08:27:32.237Z,10.5
2024-03-16T08:30:29.857Z,10.6
2024-03-16T08:33:29.773Z,10.6
2024-03-16T08:36:29.735Z,10.5
2024-03-16T08:39:29.865Z,10.5
2024-03-16T08:42:29.807Z,10.4
2024-03-16T08:45:29.832Z,10.3
2024-03-16T08:48:29.840Z,10.3
2024-03-16T08:51:29.867Z,10.4
2024-03-16T08:54:29.917Z,10.4
2024-03-16T08:57:30.040Z,10.4
2024-03-16T09:00:29.794Z,10.4
2024-03-16T09:03:29.758Z,10.3
2024-03-16T09:06:29.776Z,10.3
2024-03-16T09:09:29.912Z,10.3
2024-03-16T09:12:29.792Z,10.3
2024-03-16T09:15:29.762Z,10.3
2024-03-16T09:18:29.821Z,10.2
2024-03-16T09:21:29.765Z,10.2
2024-03-16T09:24:29.769Z,10.2
2024-03-16T09:27:29.852Z,10.1
2024-03-16T09:30:29.771Z,10
2024-03-16T09:33:29.798Z,9.8
2024-03-16T09:36:29.779Z,9.6
2024-03-16T09:39:29.783Z,9.4
2024-03-16T09:42:29.821Z,9.2
2024-03-16T09:45:29.784Z,9.1
2024-03-16T09:48:29.796Z,9.1
2024-03-16T09:51:29.783Z,9.1
2024-03-16T09:54:29.796Z,9.3
2024-03-16T09:57:29.796Z,9.5
2024-03-16T10:00:29.801Z,9.9
2024-03-16T10:03:29.795Z,10.1
2024-03-16T10:06:29.811Z,10.3
2024-03-16T10:09:29.826Z,10.7
2024-03-16T10:12:29.827Z,11
2024-03-16T10:15:29.837Z,11.1
2024-03-16T10:18:29.820Z,11.3
2024-03-16T10:21:29.848Z,11.6
2024-03-16T10:24:29.836Z,11.6
2024-03-16T10:27:29.839Z,11.8
2024-03-16T10:30:29.867Z,11.5
2024-03-16T10:33:29.845Z,11.2
2024-03-16T10:36:29.850Z,10.9
2024-03-16T10:39:29.863Z,10.3
2024-03-16T10:42:29.870Z,9.6
2024-03-16T10:45:29.863Z,9
2024-03-16T10:48:29.881Z,8.8
2024-03-16T10:51:29.869Z,8.9
2024-03-16T10:54:29.878Z,9.1
2024-03-16T10:57:29.880Z,9.5
2024-03-16T11:00:29.880Z,9.8
2024-03-16T11:03:29.884Z,10
2024-03-16T11:06:29.879Z,10.1
2024-03-16T11:09:29.884Z,10
2024-03-16T11:12:29.897Z,9.3
2024-03-16T11:15:29.889Z,8.9
2024-03-16T11:18:29.945Z,8.6
2024-03-16T11:21:29.972Z,8.5
2024-03-16T11:24:29.938Z,8.5
2024-03-16T11:27:29.913Z,8.6
2024-03-16T11:30:34.211Z,8.8
2024-03-16T11:33:29.903Z,8.9
2024-03-16T11:36:30.268Z,9.1
2024-03-16T11:39:29.904Z,9.2
2024-03-16T11:42:29.912Z,9.1
2024-03-16T11:45:29.923Z,8.9
2024-03-16T11:48:29.912Z,8.8
2024-03-16T11:51:29.917Z,8.8
2024-03-16T11:54:29.911Z,8.8
2024-03-16T11:57:29.928Z,8.7
2024-03-16T12:00:29.922Z,8.7
2024-03-16T12:03:29.917Z,8.7
2024-03-16T12:06:29.936Z,8.8
2024-03-16T12:09:30.406Z,9.1
2024-03-16T12:12:29.924Z,9.3
2024-03-16T12:15:30.147Z,9.5
2024-03-16T12:18:29.924Z,9.8
2024-03-16T12:21:31.449Z,10
2024-03-16T12:24:29.930Z,10.2
2024-03-16T12:27:30.131Z,10.3
2024-03-16T12:30:29.937Z,10.2
2024-03-16T12:33:29.949Z,10
2024-03-16T12:36:29.937Z,10.1
2024-03-16T12:39:29.969Z,10
2024-03-16T12:42:29.945Z,10
2024-03-16T12:45:29.952Z,10
2024-03-16T12:48:29.948Z,10
2024-03-16T12:51:29.956Z,9.8
2024-03-16T12:54:31.201Z,9.8
2024-03-16T12:57:29.956Z,10
2024-03-16T13:00:29.958Z,10.4
2024-03-16T13:03:29.979Z,10.4
2024-03-16T13:06:29.985Z,10.4
2024-03-16T13:09:30.014Z,10.3
2024-03-16T13:12:29.968Z,10.3
2024-03-16T13:15:29.964Z,10.3
2024-03-16T13:18:29.964Z,10.3
2024-03-16T13:21:29.964Z,10.4
2024-03-16T13:24:29.975Z,10.5
2024-03-16T13:27:29.971Z,10.5
2024-03-16T13:30:29.972Z,10.4
2024-03-16T13:33:29.992Z,10.3
2024-03-16T13:36:29.979Z,10.3
2024-03-16T13:39:30.029Z,10.2
2024-03-16T13:42:29.988Z,10.2
2024-03-16T13:45:29.980Z,10.3
2024-03-16T13:48:29.984Z,10.4
2024-03-16T13:51:29.986Z,10.5
2024-03-16T13:54:29.996Z,10.4
2024-03-16T13:57:29.985Z,10.3
2024-03-16T14:00:29.986Z,10.2
2024-03-16T14:03:29.994Z,10.2
2024-03-16T14:06:30.017Z,10.2
2024-03-16T14:09:29.992Z,10.3
2024-03-16T14:12:30.023Z,10.2
2024-03-16T14:15:29.990Z,10.1
2024-03-16T14:18:29.989Z,10.1
2024-03-16T14:21:30.003Z,10.2
2024-03-16T14:24:30.115Z,10.3
2024-03-16T14:27:29.995Z,10.3
2024-03-16T14:30:30.000Z,10.2
2024-03-16T14:33:30.110Z,10.2
2024-03-16T14:36:29.991Z,10.1
2024-03-16T14:39:30.009Z,10
2024-03-16T14:42:29.990Z,10
2024-03-16T14:45:31.750Z,10.1
2024-03-16T14:48:29.995Z,10.1
2024-03-16T14:51:31.076Z,10
2024-03-16T14:54:30.000Z,9.9
2024-03-16T14:57:30.005Z,9.9
2024-03-16T15:00:30.007Z,9.9
2024-03-16T15:03:30.005Z,10
2024-03-16T15:06:30.017Z,10
2024-03-16T15:09:30.002Z,10
2024-03-16T15:12:30.003Z,10
2024-03-16T15:15:30.006Z,10
2024-03-16T15:18:30.026Z,10
2024-03-16T15:21:30.004Z,10
2024-03-16T15:24:30.009Z,10
2024-03-16T15:27:30.006Z,10.1
2024-03-16T15:30:30.006Z,10.2
2024-03-16T15:33:30.018Z,10.2
2024-03-16T15:36:30.004Z,10
2024-03-16T15:39:30.013Z,9.9
2024-03-16T15:42:30.017Z,9.9
2024-03-16T15:45:30.016Z,9.8
2024-03-16T15:48:30.019Z,9.8
2024-03-16T15:51:30.021Z,9.9
2024-03-16T15:54:30.024Z,10.1
2024-03-16T15:57:30.016Z,10.3
2024-03-16T16:00:30.030Z,10.4
2024-03-16T16:03:30.018Z,10.6
2024-03-16T16:06:30.019Z,10.6
2024-03-16T16:09:30.025Z,10.5
2024-03-16T16:12:30.023Z,10.5
2024-03-16T16:15:30.031Z,10.4
2024-03-16T16:18:30.034Z,10.4
2024-03-16T16:21:30.025Z,10.4
2024-03-16T16:24:30.028Z,10.3
2024-03-16T16:27:30.035Z,10.1
2024-03-16T16:30:30.039Z,10
2024-03-16T16:33:30.037Z,9.8
2024-03-16T16:36:30.038Z,9.6
2024-03-16T16:39:30.034Z,9.4
2024-03-16T16:42:30.035Z,9.3
2024-03-16T16:45:30.046Z,9.2
2024-03-16T16:48:30.124Z,9.1
2024-03-16T16:51:30.036Z,9
2024-03-16T16:54:30.048Z,8.9
2024-03-16T16:57:30.088Z,8.8
2024-03-16T17:00:30.053Z,8.7
2024-03-16T17:03:30.051Z,8.6
2024-03-16T17:06:30.078Z,8.5
2024-03-16T17:09:30.068Z,8.4
2024-03-16T17:12:30.061Z,8.3
2024-03-16T17:15:30.064Z,8.2
2024-03-16T17:18:30.063Z,8.1
2024-03-16T17:21:30.230Z,8
2024-03-16T17:24:30.079Z,7.9
2024-03-16T17:27:30.101Z,7.8
2024-03-16T17:30:30.084Z,7.7
2024-03-16T17:33:30.080Z,7.6
2024-03-16T17:36:30.100Z,7.5
2024-03-16T17:39:30.085Z,7.3
2024-03-16T17:42:30.091Z,7.2
2024-03-16T17:45:30.105Z,7.1
2024-03-16T17:48:30.093Z,7
2024-03-16T17:51:30.093Z,6.9
2024-03-16T17:54:30.102Z,6.8
2024-03-16T17:57:30.102Z,6.8
2024-03-16T18:00:30.114Z,6.6
2024-03-16T18:03:30.100Z,6.6
2024-03-16T18:06:30.106Z,6.5
2024-03-16T18:09:30.104Z,6.5
2024-03-16T18:12:30.106Z,6.5
2024-03-16T18:15:30.106Z,6.4
2024-03-16T18:18:30.104Z,6.4
2024-03-16T18:21:30.112Z,6.4
2024-03-16T18:24:30.106Z,6.4
2024-03-16T18:27:30.111Z,6.3
2024-03-16T18:30:30.124Z,6.2
2024-03-16T18:33:30.117Z,6.1
2024-03-16T18:36:30.112Z,6
2024-03-16T18:39:30.114Z,5.9
2024-03-16T18:42:30.120Z,5.8
2024-03-16T18:45:30.130Z,5.7
2024-03-16T18:48:30.120Z,5.6
2024-03-16T18:51:30.123Z,5.5
2024-03-16T18:54:30.123Z,5.4
2024-03-16T18:57:30.129Z,5.4
2024-03-16T19:00:30.133Z,5.3
2024-03-16T19:03:30.137Z,5.2
2024-03-16T19:06:30.151Z,5.1
2024-03-16T19:09:30.150Z,5.1
2024-03-16T19:12:30.143Z,5.1
2024-03-16T19:15:30.146Z,5.2
2024-03-16T19:18:30.146Z,5.1
2024-03-16T19:21:30.156Z,5.1
2024-03-16T19:24:30.159Z,5
2024-03-16T19:27:30.157Z,5.1
2024-03-16T19:30:30.154Z,5.1
2024-03-16T19:33:30.161Z,5
2024-03-16T19:36:30.161Z,5
2024-03-16T19:39:30.168Z,4.9
2024-03-16T19:42:30.163Z,4.8
2024-03-16T19:45:30.169Z,4.8
2024-03-16T19:48:30.165Z,4.8
2024-03-16T19:51:30.173Z,4.8
2024-03-16T19:54:30.177Z,4.8
2024-03-16T19:57:30.182Z,4.8
2024-03-16T20:00:30.182Z,4.7
2024-03-16T20:03:30.188Z,4.7
2024-03-16T20:06:30.190Z,4.6
2024-03-16T20:09:30.190Z,4.6
2024-03-16T20:12:30.196Z,4.5
2024-03-16T20:15:30.201Z,4.5
2024-03-16T20:18:30.209Z,4.5
2024-03-16T20:21:30.209Z,4.4
2024-03-16T20:24:30.208Z,4.4
2024-03-16T20:27:30.210Z,4.3
2024-03-16T20:30:30.229Z,4.3
2024-03-16T20:33:32.865Z,4.3
2024-03-16T20:36:30.223Z,4.3
2024-03-16T20:39:30.253Z,4.3
2024-03-16T20:42:30.234Z,4.3
2024-03-16T20:45:30.231Z,4.3
2024-03-16T20:48:30.235Z,4.3
2024-03-16T20:51:30.242Z,4.3
2024-03-16T20:54:30.242Z,4.3
2024-03-16T20:57:30.249Z,4.2
2024-03-16T21:00:30.260Z,4.2
2024-03-16T21:03:30.255Z,4.1
2024-03-16T21:06:30.259Z,4.1
2024-03-16T21:09:30.259Z,4.1
2024-03-16T21:12:30.275Z,4.1
2024-03-16T21:15:30.275Z,4.1
2024-03-16T21:18:30.271Z,4
2024-03-16T21:21:30.281Z,4
2024-03-16T21:24:30.287Z,3.9
2024-03-16T21:27:30.290Z,3.9
2024-03-16T21:30:30.301Z,3.9
2024-03-16T21:33:30.294Z,3.9
2024-03-16T21:36:30.301Z,3.8
2024-03-16T21:39:30.315Z,3.8
2024-03-16T21:42:30.302Z,3.7
2024-03-16T21:45:30.305Z,3.7
2024-03-16T21:48:30.310Z,3.6
2024-03-16T21:51:30.312Z,3.7
2024-03-16T21:54:30.312Z,3.6
2024-03-16T21:57:30.313Z,3.7
2024-03-16T22:00:30.337Z,3.7
2024-03-16T22:03:30.322Z,3.6
2024-03-16T22:06:30.320Z,3.7
2024-03-16T22:09:30.344Z,3.7
2024-03-16T22:12:30.326Z,3.7
2024-03-16T22:15:30.359Z,3.7
2024-03-16T22:18:30.331Z,3.6
2024-03-16T22:21:30.383Z,3.6
2024-03-16T22:24:30.335Z,3.5
2024-03-16T22:27:30.336Z,3.5
2024-03-16T22:30:30.333Z,3.4
2024-03-16T22:33:30.345Z,3.4
2024-03-16T22:36:30.342Z,3.3
2024-03-16T22:39:30.359Z,3.3
2024-03-16T22:42:30.371Z,3.2
2024-03-16T22:45:30.373Z,3.2
2024-03-16T22:48:30.368Z,3.1
2024-03-16T22:51:30.396Z,3.1
2024-03-16T22:54:30.380Z,3.1
2024-03-16T22:57:30.382Z,3.1
2024-03-16T23:00:30.428Z,3.1
2024-03-16T23:03:30.404Z,3.1
2024-03-16T23:06:30.408Z,3.1
2024-03-16T23:09:30.585Z,3.1
2024-03-16T23:12:30.428Z,3.1
2024-03-16T23:15:30.431Z,3.1
2024-03-16T23:18:30.436Z,3.1
2024-03-16T23:21:30.453Z,3.1
2024-03-16T23:24:30.469Z,3.1
2024-03-16T23:27:30.454Z,3.2
2024-03-16T23:30:30.462Z,3.2
2024-03-16T23:33:30.476Z,3.2
2024-03-16T23:36:30.480Z,3.1
2024-03-16T23:39:30.491Z,3.1
2024-03-16T23:42:30.516Z,3
2024-03-16T23:45:30.532Z,2.9
2024-03-16T23:48:30.514Z,2.9
2024-03-16T23:51:30.534Z,2.8
2024-03-16T23:54:30.554Z,2.8
2024-03-16T23:57:30.530Z,2.8
